sensor_id;sensor_type;location;lat;lon;timestamp;P1;durP1;ratioP1;P2;durP2;ratioP2
4027;SDS011;2028;51.346;12.396;2023-03-07T00:01:22;24.48;;;20.52;;
4027;SDS011;2028;51.346;12.396;2023-03-07T00:03:49;25.10;;;21.33;;
4027;SDS011;2028;51.346;12.396;2023-03-07T00:06:15;24.42;;;21.02;;
4027;SDS011;2028;51.346;12.396;2023-03-07T00:08:42;25.35;;;21.85;;
4027;SDS011;2028;51.346;12.396;2023-03-07T00:11:08;24.52;;;21.92;;
4027;SDS011;2028;51.346;12.396;2023-03-07T00:13:35;23.25;;;19.80;;
4027;SDS011;2028;51.346;12.396;2023-03-07T00:16:03;24.73;;;22.08;;
4027;SDS011;2028;51.346;12.396;2023-03-07T00:18:30;23.33;;;20.80;;
4027;SDS011;2028;51.346;12.396;2023-03-07T00:21:00;23.40;;;19.85;;
4027;SDS011;2028;51.346;12.396;2023-03-07T00:23:27;26.05;;;21.83;;
4027;SDS011;2028;51.346;12.396;2023-03-07T00:25:57;22.67;;;20.25;;
4027;SDS011;2028;51.346;12.396;2023-03-07T00:28:37;23.27;;;20.77;;
4027;SDS011;2028;51.346;12.396;2023-03-07T00:31:05;22.17;;;19.77;;
4027;SDS011;2028;51.346;12.396;2023-03-07T00:33:32;25.13;;;21.30;;
4027;SDS011;2028;51.346;12.396;2023-03-07T00:35:59;22.88;;;20.17;;
4027;SDS011;2028;51.346;12.396;2023-03-07T00:38:27;24.13;;;20.02;;
4027;SDS011;2028;51.346;12.396;2023-03-07T00:41:00;22.48;;;20.08;;
4027;SDS011;2028;51.346;12.396;2023-03-07T00:43:27;22.98;;;19.85;;
4027;SDS011;2028;51.346;12.396;2023-03-07T00:45:54;22.75;;;18.58;;
4027;SDS011;2028;51.346;12.396;2023-03-07T00:48:21;23.98;;;20.48;;
4027;SDS011;2028;51.346;12.396;2023-03-07T00:50:47;25.10;;;19.17;;
4027;SDS011;2028;51.346;12.396;2023-03-07T00:53:14;23.42;;;20.00;;
4027;SDS011;2028;51.346;12.396;2023-03-07T00:55:40;21.30;;;19.00;;
4027;SDS011;2028;51.346;12.396;2023-03-07T00:58:06;22.20;;;19.60;;
4027;SDS011;2028;51.346;12.396;2023-03-07T01:00:33;22.48;;;19.77;;
4027;SDS011;2028;51.346;12.396;2023-03-07T01:02:59;22.73;;;19.75;;
4027;SDS011;2028;51.346;12.396;2023-03-07T01:05:27;23.45;;;19.15;;
4027;SDS011;2028;51.346;12.396;2023-03-07T01:07:53;22.42;;;20.02;;
4027;SDS011;2028;51.346;12.396;2023-03-07T01:10:20;24.13;;;20.35;;
4027;SDS011;2028;51.346;12.396;2023-03-07T01:12:46;22.63;;;19.80;;
4027;SDS011;2028;51.346;12.396;2023-03-07T01:15:12;23.75;;;19.52;;
4027;SDS011;2028;51.346;12.396;2023-03-07T01:17:39;23.90;;;20.80;;
4027;SDS011;2028;51.346;12.396;2023-03-07T01:20:05;22.55;;;19.92;;
4027;SDS011;2028;51.346;12.396;2023-03-07T01:22:32;21.42;;;18.95;;
4027;SDS011;2028;51.346;12.396;2023-03-07T01:24:58;24.23;;;20.38;;
4027;SDS011;2028;51.346;12.396;2023-03-07T01:27:24;22.63;;;20.00;;
4027;SDS011;2028;51.346;12.396;2023-03-07T01:29:51;23.90;;;20.77;;
4027;SDS011;2028;51.346;12.396;2023-03-07T01:32:17;21.35;;;18.95;;
4027;SDS011;2028;51.346;12.396;2023-03-07T01:34:47;24.48;;;21.15;;
4027;SDS011;2028;51.346;12.396;2023-03-07T01:37:13;24.10;;;21.50;;
4027;SDS011;2028;51.346;12.396;2023-03-07T01:39:40;22.85;;;19.13;;
4027;SDS011;2028;51.346;12.396;2023-03-07T01:42:07;21.40;;;19.20;;
4027;SDS011;2028;51.346;12.396;2023-03-07T01:44:56;22.92;;;20.52;;
4027;SDS011;2028;51.346;12.396;2023-03-07T01:47:27;23.63;;;20.17;;
4027;SDS011;2028;51.346;12.396;2023-03-07T01:49:53;22.10;;;19.58;;
4027;SDS011;2028;51.346;12.396;2023-03-07T01:52:24;22.55;;;19.98;;
4027;SDS011;2028;51.346;12.396;2023-03-07T01:54:57;22.80;;;20.33;;
4027;SDS011;2028;51.346;12.396;2023-03-07T01:57:31;22.98;;;20.50;;
4027;SDS011;2028;51.346;12.396;2023-03-07T02:00:00;24.42;;;21.85;;
4027;SDS011;2028;51.346;12.396;2023-03-07T02:02:30;22.50;;;20.17;;
4027;SDS011;2028;51.346;12.396;2023-03-07T02:05:09;23.88;;;21.02;;
4027;SDS011;2028;51.346;12.396;2023-03-07T02:07:49;21.38;;;19.10;;
4027;SDS011;2028;51.346;12.396;2023-03-07T02:10:18;23.40;;;20.88;;
4027;SDS011;2028;51.346;12.396;2023-03-07T02:12:46;24.88;;;20.92;;
4027;SDS011;2028;51.346;12.396;2023-03-07T02:15:13;23.13;;;20.52;;
4027;SDS011;2028;51.346;12.396;2023-03-07T02:17:39;23.20;;;20.73;;
4027;SDS011;2028;51.346;12.396;2023-03-07T02:22:38;23.27;;;20.88;;
4027;SDS011;2028;51.346;12.396;2023-03-07T02:27:38;25.27;;;22.42;;
4027;SDS011;2028;51.346;12.396;2023-03-07T02:30:06;24.52;;;21.40;;
4027;SDS011;2028;51.346;12.396;2023-03-07T02:32:33;25.13;;;22.13;;
4027;SDS011;2028;51.346;12.396;2023-03-07T02:34:59;23.92;;;21.50;;
4027;SDS011;2028;51.346;12.396;2023-03-07T02:37:31;25.20;;;21.70;;
4027;SDS011;2028;51.346;12.396;2023-03-07T02:40:00;23.17;;;20.77;;
4027;SDS011;2028;51.346;12.396;2023-03-07T02:42:30;23.48;;;20.98;;
4027;SDS011;2028;51.346;12.396;2023-03-07T02:47:32;23.60;;;21.08;;
4027;SDS011;2028;51.346;12.396;2023-03-07T02:49:58;23.92;;;21.17;;
4027;SDS011;2028;51.346;12.396;2023-03-07T02:52:25;23.70;;;21.40;;
4027;SDS011;2028;51.346;12.396;2023-03-07T02:54:53;23.38;;;20.92;;
4027;SDS011;2028;51.346;12.396;2023-03-07T02:57:19;24.60;;;22.08;;
4027;SDS011;2028;51.346;12.396;2023-03-07T02:59:46;24.23;;;21.73;;
4027;SDS011;2028;51.346;12.396;2023-03-07T03:02:13;24.20;;;21.80;;
4027;SDS011;2028;51.346;12.396;2023-03-07T03:04:39;24.23;;;21.63;;
4027;SDS011;2028;51.346;12.396;2023-03-07T03:07:05;22.45;;;20.05;;
4027;SDS011;2028;51.346;12.396;2023-03-07T03:09:32;22.33;;;19.67;;
4027;SDS011;2028;51.346;12.396;2023-03-07T03:11:58;22.38;;;19.98;;
4027;SDS011;2028;51.346;12.396;2023-03-07T03:14:25;21.58;;;19.35;;
4027;SDS011;2028;51.346;12.396;2023-03-07T03:16:51;20.08;;;18.08;;
4027;SDS011;2028;51.346;12.396;2023-03-07T03:19:18;21.95;;;18.85;;
4027;SDS011;2028;51.346;12.396;2023-03-07T03:21:44;21.27;;;19.10;;
4027;SDS011;2028;51.346;12.396;2023-03-07T03:24:11;21.63;;;18.65;;
4027;SDS011;2028;51.346;12.396;2023-03-07T03:26:37;21.42;;;19.13;;
4027;SDS011;2028;51.346;12.396;2023-03-07T03:29:03;20.60;;;18.40;;
4027;SDS011;2028;51.346;12.396;2023-03-07T03:31:30;20.98;;;18.77;;
4027;SDS011;2028;51.346;12.396;2023-03-07T03:33:57;21.98;;;18.40;;
4027;SDS011;2028;51.346;12.396;2023-03-07T03:36:24;22.65;;;18.77;;
4027;SDS011;2028;51.346;12.396;2023-03-07T03:38:53;20.70;;;18.45;;
4027;SDS011;2028;51.346;12.396;2023-03-07T03:41:20;20.65;;;18.55;;
4027;SDS011;2028;51.346;12.396;2023-03-07T03:43:46;20.20;;;18.00;;
4027;SDS011;2028;51.346;12.396;2023-03-07T03:46:12;20.00;;;18.00;;
4027;SDS011;2028;51.346;12.396;2023-03-07T03:48:39;19.10;;;17.20;;
4027;SDS011;2028;51.346;12.396;2023-03-07T03:53:41;20.42;;;18.23;;
4027;SDS011;2028;51.346;12.396;2023-03-07T03:56:11;20.00;;;17.90;;
4027;SDS011;2028;51.346;12.396;2023-03-07T03:58:39;19.83;;;17.67;;
4027;SDS011;2028;51.346;12.396;2023-03-07T04:01:08;20.00;;;18.00;;
4027;SDS011;2028;51.346;12.396;2023-03-07T04:03:36;19.98;;;17.85;;
4027;SDS011;2028;51.346;12.396;2023-03-07T04:06:03;20.27;;;17.85;;
4027;SDS011;2028;51.346;12.396;2023-03-07T04:08:30;21.50;;;19.30;;
4027;SDS011;2028;51.346;12.396;2023-03-07T04:10:57;20.58;;;18.42;;
4027;SDS011;2028;51.346;12.396;2023-03-07T04:13:23;20.48;;;18.27;;
4027;SDS011;2028;51.346;12.396;2023-03-07T04:15:50;19.25;;;17.23;;
4027;SDS011;2028;51.346;12.396;2023-03-07T04:18:17;18.67;;;16.08;;
4027;SDS011;2028;51.346;12.396;2023-03-07T04:20:43;20.45;;;18.33;;
4027;SDS011;2028;51.346;12.396;2023-03-07T04:23:10;20.27;;;18.00;;
4027;SDS011;2028;51.346;12.396;2023-03-07T04:25:36;18.83;;;16.85;;
4027;SDS011;2028;51.346;12.396;2023-03-07T04:28:03;20.75;;;18.63;;
4027;SDS011;2028;51.346;12.396;2023-03-07T04:30:29;19.83;;;17.73;;
4027;SDS011;2028;51.346;12.396;2023-03-07T04:32:55;18.47;;;16.57;;
4027;SDS011;2028;51.346;12.396;2023-03-07T04:35:21;19.00;;;17.10;;
4027;SDS011;2028;51.346;12.396;2023-03-07T04:37:47;19.08;;;16.70;;
4027;SDS011;2028;51.346;12.396;2023-03-07T04:40:14;17.88;;;16.08;;
4027;SDS011;2028;51.346;12.396;2023-03-07T04:42:41;18.13;;;16.27;;
4027;SDS011;2028;51.346;12.396;2023-03-07T04:45:06;19.17;;;16.30;;
4027;SDS011;2028;51.346;12.396;2023-03-07T04:47:33;17.75;;;15.85;;
4027;SDS011;2028;51.346;12.396;2023-03-07T04:49:59;18.27;;;16.38;;
4027;SDS011;2028;51.346;12.396;2023-03-07T04:52:26;17.80;;;15.98;;
4027;SDS011;2028;51.346;12.396;2023-03-07T04:54:52;18.55;;;16.02;;
4027;SDS011;2028;51.346;12.396;2023-03-07T04:57:18;17.70;;;15.68;;
4027;SDS011;2028;51.346;12.396;2023-03-07T04:59:45;18.25;;;15.80;;
4027;SDS011;2028;51.346;12.396;2023-03-07T05:02:11;17.03;;;15.23;;
4027;SDS011;2028;51.346;12.396;2023-03-07T05:04:37;17.05;;;15.35;;
4027;SDS011;2028;51.346;12.396;2023-03-07T05:07:04;17.05;;;14.95;;
4027;SDS011;2028;51.346;12.396;2023-03-07T05:09:30;18.88;;;15.20;;
4027;SDS011;2028;51.346;12.396;2023-03-07T05:11:57;16.90;;;15.10;;
4027;SDS011;2028;51.346;12.396;2023-03-07T05:14:23;16.95;;;15.23;;
4027;SDS011;2028;51.346;12.396;2023-03-07T05:16:50;16.38;;;14.55;;
4027;SDS011;2028;51.346;12.396;2023-03-07T05:19:16;17.45;;;15.65;;
4027;SDS011;2028;51.346;12.396;2023-03-07T05:21:42;16.23;;;14.35;;
4027;SDS011;2028;51.346;12.396;2023-03-07T05:24:09;16.73;;;14.82;;
4027;SDS011;2028;51.346;12.396;2023-03-07T05:26:35;15.18;;;13.57;;
4027;SDS011;2028;51.346;12.396;2023-03-07T05:29:02;48.25;;;35.45;;
4027;SDS011;2028;51.346;12.396;2023-03-07T05:31:28;52.97;;;43.53;;
4027;SDS011;2028;51.346;12.396;2023-03-07T05:33:55;14.43;;;13.00;;
4027;SDS011;2028;51.346;12.396;2023-03-07T05:36:21;14.15;;;12.65;;
4027;SDS011;2028;51.346;12.396;2023-03-07T05:38:47;16.27;;;14.47;;
4027;SDS011;2028;51.346;12.396;2023-03-07T05:41:13;14.43;;;12.93;;
4027;SDS011;2028;51.346;12.396;2023-03-07T05:43:39;15.10;;;13.55;;
4027;SDS011;2028;51.346;12.396;2023-03-07T05:46:05;13.68;;;12.38;;
4027;SDS011;2028;51.346;12.396;2023-03-07T05:48:32;15.15;;;13.15;;
4027;SDS011;2028;51.346;12.396;2023-03-07T05:50:58;15.23;;;12.85;;
4027;SDS011;2028;51.346;12.396;2023-03-07T05:53:25;13.57;;;12.23;;
4027;SDS011;2028;51.346;12.396;2023-03-07T05:55:51;12.45;;;11.25;;
4027;SDS011;2028;51.346;12.396;2023-03-07T05:58:17;12.80;;;11.43;;
4027;SDS011;2028;51.346;12.396;2023-03-07T06:00:44;14.18;;;12.75;;
4027;SDS011;2028;51.346;12.396;2023-03-07T06:03:10;12.80;;;11.50;;
4027;SDS011;2028;51.346;12.396;2023-03-07T06:05:36;13.93;;;11.50;;
4027;SDS011;2028;51.346;12.396;2023-03-07T06:08:03;11.80;;;10.60;;
4027;SDS011;2028;51.346;12.396;2023-03-07T06:10:30;12.95;;;11.65;;
4027;SDS011;2028;51.346;12.396;2023-03-07T06:12:57;12.70;;;10.73;;
4027;SDS011;2028;51.346;12.396;2023-03-07T06:15:23;12.75;;;10.80;;
4027;SDS011;2028;51.346;12.396;2023-03-07T06:17:50;46.35;;;37.25;;
4027;SDS011;2028;51.346;12.396;2023-03-07T06:20:19;15.07;;;13.48;;
4027;SDS011;2028;51.346;12.396;2023-03-07T06:22:46;11.48;;;10.27;;
4027;SDS011;2028;51.346;12.396;2023-03-07T06:25:12;10.75;;;9.75;;
4027;SDS011;2028;51.346;12.396;2023-03-07T06:27:41;10.80;;;9.70;;
4027;SDS011;2028;51.346;12.396;2023-03-07T06:30:07;11.40;;;10.30;;
4027;SDS011;2028;51.346;12.396;2023-03-07T06:32:34;14.00;;;10.75;;
4027;SDS011;2028;51.346;12.396;2023-03-07T06:35:00;11.63;;;10.52;;
4027;SDS011;2028;51.346;12.396;2023-03-07T06:37:26;11.00;;;9.90;;
4027;SDS011;2028;51.346;12.396;2023-03-07T06:39:53;10.32;;;9.23;;
4027;SDS011;2028;51.346;12.396;2023-03-07T06:42:20;11.38;;;10.18;;
4027;SDS011;2028;51.346;12.396;2023-03-07T06:44:46;11.18;;;10.07;;
4027;SDS011;2028;51.346;12.396;2023-03-07T06:47:12;10.32;;;9.32;;
4027;SDS011;2028;51.346;12.396;2023-03-07T06:49:38;10.88;;;9.77;;
4027;SDS011;2028;51.346;12.396;2023-03-07T06:52:04;11.53;;;9.73;;
4027;SDS011;2028;51.346;12.396;2023-03-07T06:54:31;10.27;;;9.27;;
4027;SDS011;2028;51.346;12.396;2023-03-07T06:56:57;13.13;;;10.33;;
4027;SDS011;2028;51.346;12.396;2023-03-07T06:59:23;10.45;;;9.00;;
4027;SDS011;2028;51.346;12.396;2023-03-07T07:01:49;9.73;;;8.75;;
4027;SDS011;2028;51.346;12.396;2023-03-07T07:04:15;12.32;;;10.02;;
4027;SDS011;2028;51.346;12.396;2023-03-07T07:06:42;10.30;;;9.30;;
4027;SDS011;2028;51.346;12.396;2023-03-07T07:09:10;10.27;;;9.27;;
4027;SDS011;2028;51.346;12.396;2023-03-07T07:11:37;10.10;;;9.10;;
4027;SDS011;2028;51.346;12.396;2023-03-07T07:14:03;9.52;;;8.63;;
4027;SDS011;2028;51.346;12.396;2023-03-07T07:16:30;10.00;;;9.00;;
4027;SDS011;2028;51.346;12.396;2023-03-07T07:18:58;10.02;;;9.00;;
4027;SDS011;2028;51.346;12.396;2023-03-07T07:21:24;10.00;;;9.00;;
4027;SDS011;2028;51.346;12.396;2023-03-07T07:23:51;11.43;;;10.30;;
4027;SDS011;2028;51.346;12.396;2023-03-07T07:26:17;15.18;;;12.98;;
4027;SDS011;2028;51.346;12.396;2023-03-07T07:28:43;10.30;;;9.30;;
4027;SDS011;2028;51.346;12.396;2023-03-07T07:31:10;10.27;;;9.27;;
4027;SDS011;2028;51.346;12.396;2023-03-07T07:33:36;10.20;;;8.40;;
4027;SDS011;2028;51.346;12.396;2023-03-07T07:36:02;9.50;;;8.43;;
4027;SDS011;2028;51.346;12.396;2023-03-07T07:38:29;8.70;;;7.90;;
4027;SDS011;2028;51.346;12.396;2023-03-07T07:40:55;9.25;;;8.35;;
4027;SDS011;2028;51.346;12.396;2023-03-07T07:43:21;8.90;;;8.00;;
4027;SDS011;2028;51.346;12.396;2023-03-07T07:45:48;9.23;;;8.32;;
4027;SDS011;2028;51.346;12.396;2023-03-07T07:48:14;9.15;;;8.18;;
4027;SDS011;2028;51.346;12.396;2023-03-07T07:50:41;8.32;;;7.53;;
4027;SDS011;2028;51.346;12.396;2023-03-07T07:53:07;8.77;;;7.40;;
4027;SDS011;2028;51.346;12.396;2023-03-07T07:55:33;9.20;;;7.57;;
4027;SDS011;2028;51.346;12.396;2023-03-07T07:58:00;9.35;;;8.45;;
4027;SDS011;2028;51.346;12.396;2023-03-07T08:00:26;9.75;;;8.75;;
4027;SDS011;2028;51.346;12.396;2023-03-07T08:02:53;9.07;;;7.60;;
4027;SDS011;2028;51.346;12.396;2023-03-07T08:05:19;8.00;;;7.20;;
4027;SDS011;2028;51.346;12.396;2023-03-07T08:07:46;9.90;;;8.90;;
4027;SDS011;2028;51.346;12.396;2023-03-07T08:10:14;9.55;;;8.65;;
4027;SDS011;2028;51.346;12.396;2023-03-07T08:12:42;9.07;;;8.18;;
4027;SDS011;2028;51.346;12.396;2023-03-07T08:15:09;8.60;;;7.80;;
4027;SDS011;2028;51.346;12.396;2023-03-07T08:17:36;8.13;;;7.32;;
4027;SDS011;2028;51.346;12.396;2023-03-07T08:20:03;8.63;;;7.35;;
4027;SDS011;2028;51.346;12.396;2023-03-07T08:22:37;7.63;;;6.93;;
4027;SDS011;2028;51.346;12.396;2023-03-07T08:25:04;7.85;;;7.15;;
4027;SDS011;2028;51.346;12.396;2023-03-07T08:27:31;8.70;;;7.07;;
4027;SDS011;2028;51.346;12.396;2023-03-07T08:29:58;7.25;;;6.55;;
4027;SDS011;2028;51.346;12.396;2023-03-07T08:32:26;7.50;;;6.32;;
4027;SDS011;2028;51.346;12.396;2023-03-07T08:34:52;6.15;;;5.65;;
4027;SDS011;2028;51.346;12.396;2023-03-07T08:37:18;20.63;;;18.52;;
4027;SDS011;2028;51.346;12.396;2023-03-07T08:39:45;63.42;;;49.55;;
4027;SDS011;2028;51.346;12.396;2023-03-07T08:42:11;7.60;;;6.90;;
4027;SDS011;2028;51.346;12.396;2023-03-07T08:44:38;6.90;;;6.22;;
4027;SDS011;2028;51.346;12.396;2023-03-07T08:47:04;7.95;;;7.15;;
4027;SDS011;2028;51.346;12.396;2023-03-07T08:49:31;8.68;;;7.22;;
4027;SDS011;2028;51.346;12.396;2023-03-07T08:51:57;8.00;;;6.53;;
4027;SDS011;2028;51.346;12.396;2023-03-07T08:54:23;9.02;;;6.88;;
4027;SDS011;2028;51.346;12.396;2023-03-07T08:56:49;9.00;;;7.35;;
4027;SDS011;2028;51.346;12.396;2023-03-07T08:59:15;7.03;;;6.35;;
4027;SDS011;2028;51.346;12.396;2023-03-07T09:01:42;7.40;;;6.70;;
4027;SDS011;2028;51.346;12.396;2023-03-07T09:04:08;7.93;;;6.93;;
4027;SDS011;2028;51.346;12.396;2023-03-07T09:06:34;6.97;;;6.38;;
4027;SDS011;2028;51.346;12.396;2023-03-07T09:09:01;7.38;;;6.68;;
4027;SDS011;2028;51.346;12.396;2023-03-07T09:11:27;7.65;;;6.95;;
4027;SDS011;2028;51.346;12.396;2023-03-07T09:13:54;7.63;;;6.55;;
4027;SDS011;2028;51.346;12.396;2023-03-07T09:16:20;7.07;;;6.15;;
4027;SDS011;2028;51.346;12.396;2023-03-07T09:18:47;7.28;;;6.57;;
4027;SDS011;2028;51.346;12.396;2023-03-07T09:21:13;7.53;;;6.70;;
4027;SDS011;2028;51.346;12.396;2023-03-07T09:23:41;8.05;;;7.25;;
4027;SDS011;2028;51.346;12.396;2023-03-07T09:26:07;8.20;;;7.50;;
4027;SDS011;2028;51.346;12.396;2023-03-07T09:28:34;8.23;;;7.10;;
4027;SDS011;2028;51.346;12.396;2023-03-07T09:31:10;9.68;;;8.77;;
4027;SDS011;2028;51.346;12.396;2023-03-07T09:33:37;10.77;;;9.68;;
4027;SDS011;2028;51.346;12.396;2023-03-07T09:36:07;8.07;;;7.38;;
4027;SDS011;2028;51.346;12.396;2023-03-07T09:38:35;10.02;;;7.05;;
4027;SDS011;2028;51.346;12.396;2023-03-07T09:43:35;8.38;;;7.57;;
4027;SDS011;2028;51.346;12.396;2023-03-07T09:51:40;8.65;;;7.75;;
4027;SDS011;2028;51.346;12.396;2023-03-07T09:56:37;9.95;;;8.95;;
4027;SDS011;2028;51.346;12.396;2023-03-07T09:59:55;8.75;;;7.85;;
4027;SDS011;2028;51.346;12.396;2023-03-07T10:04:54;9.23;;;8.38;;
4027;SDS011;2028;51.346;12.396;2023-03-07T10:07:23;10.80;;;7.93;;
4027;SDS011;2028;51.346;12.396;2023-03-07T10:09:52;9.25;;;8.32;;
4027;SDS011;2028;51.346;12.396;2023-03-07T10:12:33;8.98;;;8.07;;
4027;SDS011;2028;51.346;12.396;2023-03-07T10:17:41;9.68;;;8.77;;
4027;SDS011;2028;51.346;12.396;2023-03-07T10:28:39;10.68;;;8.18;;
4027;SDS011;2028;51.346;12.396;2023-03-07T10:31:12;9.00;;;8.10;;
4027;SDS011;2028;51.346;12.396;2023-03-07T10:33:39;9.60;;;8.70;;
4027;SDS011;2028;51.346;12.396;2023-03-07T10:36:10;9.40;;;8.60;;
4027;SDS011;2028;51.346;12.396;2023-03-07T10:38:49;9.20;;;8.40;;
4027;SDS011;2028;51.346;12.396;2023-03-07T10:41:17;9.10;;;8.25;;
4027;SDS011;2028;51.346;12.396;2023-03-07T10:43:45;9.85;;;8.93;;
4027;SDS011;2028;51.346;12.396;2023-03-07T10:46:15;9.48;;;8.48;;
4027;SDS011;2028;51.346;12.396;2023-03-07T10:48:47;8.93;;;8.02;;
4027;SDS011;2028;51.346;12.396;2023-03-07T10:54:21;10.05;;;9.05;;
4027;SDS011;2028;51.346;12.396;2023-03-07T10:59:35;10.52;;;9.52;;
4027;SDS011;2028;51.346;12.396;2023-03-07T11:02:06;11.40;;;9.02;;
4027;SDS011;2028;51.346;12.396;2023-03-07T11:04:44;9.70;;;8.80;;
4027;SDS011;2028;51.346;12.396;2023-03-07T11:07:25;25.42;;;21.60;;
4027;SDS011;2028;51.346;12.396;2023-03-07T11:09:55;11.73;;;10.63;;
4027;SDS011;2028;51.346;12.396;2023-03-07T11:12:23;9.88;;;8.98;;
4027;SDS011;2028;51.346;12.396;2023-03-07T11:14:56;9.57;;;8.57;;
4027;SDS011;2028;51.346;12.396;2023-03-07T11:20:10;10.93;;;9.23;;
4027;SDS011;2028;51.346;12.396;2023-03-07T11:22:43;9.93;;;8.93;;
4027;SDS011;2028;51.346;12.396;2023-03-07T11:25:15;11.82;;;8.52;;
4027;SDS011;2028;51.346;12.396;2023-03-07T11:27:56;9.23;;;8.32;;
4027;SDS011;2028;51.346;12.396;2023-03-07T11:30:44;9.10;;;8.30;;
4027;SDS011;2028;51.346;12.396;2023-03-07T11:33:21;8.55;;;7.75;;
4027;SDS011;2028;51.346;12.396;2023-03-07T11:41:10;8.60;;;7.68;;
4027;SDS011;2028;51.346;12.396;2023-03-07T11:46:36;8.93;;;8.07;;
4027;SDS011;2028;51.346;12.396;2023-03-07T12:05:35;8.80;;;7.90;;
4027;SDS011;2028;51.346;12.396;2023-03-07T12:13:05;9.15;;;8.25;;
4027;SDS011;2028;51.346;12.396;2023-03-07T12:18:17;8.87;;;7.97;;
4027;SDS011;2028;51.346;12.396;2023-03-07T12:23:35;7.73;;;6.93;;
4027;SDS011;2028;51.346;12.396;2023-03-07T12:26:18;8.70;;;7.93;;
4027;SDS011;2028;51.346;12.396;2023-03-07T12:28:50;8.10;;;7.30;;
4027;SDS011;2028;51.346;12.396;2023-03-07T12:31:21;9.20;;;8.30;;
4027;SDS011;2028;51.346;12.396;2023-03-07T12:39:26;18.17;;;16.10;;
4027;SDS011;2028;51.346;12.396;2023-03-07T12:46:57;8.13;;;7.40;;
4027;SDS011;2028;51.346;12.396;2023-03-07T12:52:13;8.70;;;7.90;;
4027;SDS011;2028;51.346;12.396;2023-03-07T12:54:47;9.37;;;8.40;;
4027;SDS011;2028;51.346;12.396;2023-03-07T12:57:29;8.82;;;7.88;;
4027;SDS011;2028;51.346;12.396;2023-03-07T12:59:57;8.97;;;7.90;;
4027;SDS011;2028;51.346;12.396;2023-03-07T13:02:28;9.45;;;8.50;;
4027;SDS011;2028;51.346;12.396;2023-03-07T13:04:54;8.43;;;7.63;;
4027;SDS011;2028;51.346;12.396;2023-03-07T13:07:24;11.38;;;8.02;;
4027;SDS011;2028;51.346;12.396;2023-03-07T13:09:52;9.55;;;8.57;;
4027;SDS011;2028;51.346;12.396;2023-03-07T13:12:31;10.10;;;7.75;;
4027;SDS011;2028;51.346;12.396;2023-03-07T13:19:53;9.70;;;8.73;;
4027;SDS011;2028;51.346;12.396;2023-03-07T13:24:52;9.20;;;8.23;;
4027;SDS011;2028;51.346;12.396;2023-03-07T13:27:19;9.82;;;8.25;;
4027;SDS011;2028;51.346;12.396;2023-03-07T13:35:58;9.18;;;7.93;;
4027;SDS011;2028;51.346;12.396;2023-03-07T13:45:57;9.68;;;8.60;;
4027;SDS011;2028;51.346;12.396;2023-03-07T13:51:13;10.80;;;9.37;;
4027;SDS011;2028;51.346;12.396;2023-03-07T13:53:49;10.13;;;8.97;;
4027;SDS011;2028;51.346;12.396;2023-03-07T13:56:20;9.27;;;8.37;;
4027;SDS011;2028;51.346;12.396;2023-03-07T14:04:23;10.97;;;8.63;;
4027;SDS011;2028;51.346;12.396;2023-03-07T14:09:22;9.30;;;8.02;;
4027;SDS011;2028;51.346;12.396;2023-03-07T14:11:54;11.30;;;8.13;;
4027;SDS011;2028;51.346;12.396;2023-03-07T14:19:38;9.23;;;8.23;;
4027;SDS011;2028;51.346;12.396;2023-03-07T14:25:51;8.70;;;7.80;;
4027;SDS011;2028;51.346;12.396;2023-03-07T14:27:49;9.97;;;8.53;;
4027;SDS011;2028;51.346;12.396;2023-03-07T14:30:16;9.32;;;8.43;;
4027;SDS011;2028;51.346;12.396;2023-03-07T14:32:43;14.32;;;12.48;;
4027;SDS011;2028;51.346;12.396;2023-03-07T14:35:09;13.57;;;9.83;;
4027;SDS011;2028;51.346;12.396;2023-03-07T14:37:40;10.23;;;9.23;;
4027;SDS011;2028;51.346;12.396;2023-03-07T14:40:25;6.60;;;6.00;;
4027;SDS011;2028;51.346;12.396;2023-03-07T14:45:29;6.97;;;6.07;;
4027;SDS011;2028;51.346;12.396;2023-03-07T14:50:30;4.82;;;4.35;;
4027;SDS011;2028;51.346;12.396;2023-03-07T14:52:58;5.88;;;4.57;;
4027;SDS011;2028;51.346;12.396;2023-03-07T14:55:30;4.55;;;4.15;;
4027;SDS011;2028;51.346;12.396;2023-03-07T14:58:03;3.20;;;3.00;;
4027;SDS011;2028;51.346;12.396;2023-03-07T15:00:30;4.13;;;3.60;;
4027;SDS011;2028;51.346;12.396;2023-03-07T15:03:00;7.00;;;5.78;;
4027;SDS011;2028;51.346;12.396;2023-03-07T15:05:33;15.25;;;13.52;;
4027;SDS011;2028;51.346;12.396;2023-03-07T15:10:33;7.60;;;5.95;;
4027;SDS011;2028;51.346;12.396;2023-03-07T15:13:06;7.55;;;6.40;;
4027;SDS011;2028;51.346;12.396;2023-03-07T15:15:41;8.18;;;5.63;;
4027;SDS011;2028;51.346;12.396;2023-03-07T15:18:23;6.50;;;5.82;;
4027;SDS011;2028;51.346;12.396;2023-03-07T15:22:03;6.32;;;4.88;;
4027;SDS011;2028;51.346;12.396;2023-03-07T15:24:31;5.30;;;4.80;;
4027;SDS011;2028;51.346;12.396;2023-03-07T15:26:58;5.82;;;4.05;;
4027;SDS011;2028;51.346;12.396;2023-03-07T15:29:26;4.80;;;4.07;;
4027;SDS011;2028;51.346;12.396;2023-03-07T15:32:03;5.13;;;4.63;;
4027;SDS011;2028;51.346;12.396;2023-03-07T15:34:38;6.72;;;4.95;;
4027;SDS011;2028;51.346;12.396;2023-03-07T15:37:26;8.68;;;6.45;;
4027;SDS011;2028;51.346;12.396;2023-03-07T15:39:54;14.05;;;10.30;;
4027;SDS011;2028;51.346;12.396;2023-03-07T15:42:21;30.65;;;23.13;;
4027;SDS011;2028;51.346;12.396;2023-03-07T15:45:00;27.38;;;20.42;;
4027;SDS011;2028;51.346;12.396;2023-03-07T15:47:27;11.07;;;9.45;;
4027;SDS011;2028;51.346;12.396;2023-03-07T15:49:58;9.10;;;7.72;;
4027;SDS011;2028;51.346;12.396;2023-03-07T15:52:26;5.65;;;5.00;;
4027;SDS011;2028;51.346;12.396;2023-03-07T15:55:19;7.50;;;6.15;;
4027;SDS011;2028;51.346;12.396;2023-03-07T15:57:56;33.10;;;24.00;;
4027;SDS011;2028;51.346;12.396;2023-03-07T16:00:29;16.10;;;13.55;;
4027;SDS011;2028;51.346;12.396;2023-03-07T16:05:41;13.00;;;10.23;;
4027;SDS011;2028;51.346;12.396;2023-03-07T16:08:09;5.70;;;5.03;;
4027;SDS011;2028;51.346;12.396;2023-03-07T16:10:36;6.68;;;4.47;;
4027;SDS011;2028;51.346;12.396;2023-03-07T16:13:04;5.22;;;3.92;;
4027;SDS011;2028;51.346;12.396;2023-03-07T16:15:30;4.85;;;3.63;;
4027;SDS011;2028;51.346;12.396;2023-03-07T16:17:56;4.65;;;4.07;;
4027;SDS011;2028;51.346;12.396;2023-03-07T16:20:24;4.40;;;4.00;;
4027;SDS011;2028;51.346;12.396;2023-03-07T16:22:51;4.18;;;3.78;;
4027;SDS011;2028;51.346;12.396;2023-03-07T16:25:17;4.30;;;4.00;;
4027;SDS011;2028;51.346;12.396;2023-03-07T16:27:54;4.55;;;4.15;;
4027;SDS011;2028;51.346;12.396;2023-03-07T16:30:22;3.83;;;3.53;;
4027;SDS011;2028;51.346;12.396;2023-03-07T16:32:49;4.50;;;4.10;;
4027;SDS011;2028;51.346;12.396;2023-03-07T16:35:23;5.05;;;4.65;;
4027;SDS011;2028;51.346;12.396;2023-03-07T16:37:50;4.78;;;4.40;;
4027;SDS011;2028;51.346;12.396;2023-03-07T16:40:17;5.05;;;4.65;;
4027;SDS011;2028;51.346;12.396;2023-03-07T16:42:48;4.18;;;3.80;;
4027;SDS011;2028;51.346;12.396;2023-03-07T16:45:16;4.13;;;3.72;;
4027;SDS011;2028;51.346;12.396;2023-03-07T16:48:02;4.68;;;4.10;;
4027;SDS011;2028;51.346;12.396;2023-03-07T16:50:29;4.35;;;3.95;;
4027;SDS011;2028;51.346;12.396;2023-03-07T16:52:56;4.78;;;4.05;;
4027;SDS011;2028;51.346;12.396;2023-03-07T16:55:23;4.97;;;4.50;;
4027;SDS011;2028;51.346;12.396;2023-03-07T16:57:57;6.22;;;4.28;;
4027;SDS011;2028;51.346;12.396;2023-03-07T17:00:25;16.45;;;12.52;;
4027;SDS011;2028;51.346;12.396;2023-03-07T17:02:52;36.83;;;27.77;;
4027;SDS011;2028;51.346;12.396;2023-03-07T17:05:22;22.80;;;16.80;;
4027;SDS011;2028;51.346;12.396;2023-03-07T17:07:52;11.32;;;8.95;;
4027;SDS011;2028;51.346;12.396;2023-03-07T17:10:19;11.80;;;9.57;;
4027;SDS011;2028;51.346;12.396;2023-03-07T17:12:46;8.40;;;7.05;;
4027;SDS011;2028;51.346;12.396;2023-03-07T17:15:15;5.60;;;5.10;;
4027;SDS011;2028;51.346;12.396;2023-03-07T17:17:41;141.15;;;100.05;;